createdAt,value
2023-01-02T00:03:04.147Z,99.20
2023-01-02T00:13:05.866Z,99.40
2023-01-02T00:23:07.772Z,99.40
2023-01-02T00:33:09.400Z,99.40
2023-01-02T00:43:10.989Z,99.60
2023-01-02T00:53:12.599Z,99.70
2023-01-02T01:03:14.253Z,99.80
2023-01-02T01:13:15.882Z,99.90
2023-01-02T01:23:17.502Z,99.90
2023-01-02T01:33:19.098Z,99.90
2023-01-02T01:43:46.512Z,99.90
2023-01-02T01:53:53.518Z,99.90
2023-01-02T02:03:55.946Z,99.90
2023-01-02T02:13:59.671Z,99.90
2023-01-02T02:24:50.078Z,99.90
2023-01-02T02:35:23.186Z,99.90
2023-01-02T02:45:57.382Z,99.90
2023-01-02T02:56:02.223Z,99.90
2023-01-02T03:06:49.222Z,99.90
2023-01-02T03:16:59.992Z,99.90
2023-01-02T03:27:12.236Z,99.90
2023-01-02T03:37:20.430Z,99.90
2023-01-02T03:47:55.539Z,99.90
2023-01-02T03:58:03.241Z,99.90
2023-01-02T04:08:25.907Z,99.90
2023-01-02T04:18:31.266Z,99.90
2023-01-02T04:28:34.568Z,99.90
2023-01-02T04:38:36.297Z,99.90
2023-01-02T04:48:37.904Z,99.90
2023-01-02T04:58:40.406Z,99.90
2023-01-02T05:08:42.178Z,99.90
2023-01-02T05:18:43.825Z,99.90
2023-01-02T05:28:45.956Z,99.90
2023-01-02T05:38:47.638Z,99.90
2023-01-02T05:48:50.410Z,99.90
2023-01-02T05:58:52.151Z,99.90
2023-01-02T06:08:53.798Z,99.90
2023-01-02T06:18:55.428Z,99.90
2023-01-02T06:28:57.769Z,99.90
2023-01-02T06:38:59.611Z,99.90
2023-01-02T06:49:01.234Z,99.90
2023-01-02T06:59:02.867Z,99.90
2023-01-02T07:09:04.457Z,99.90
2023-01-02T07:19:06.073Z,99.90
2023-01-02T07:29:07.842Z,99.90
2023-01-02T07:39:09.731Z,99.90
2023-01-02T07:49:12.632Z,99.90
2023-01-02T07:59:14.296Z,99.90
2023-01-02T08:09:15.893Z,99.90
2023-01-02T08:19:17.522Z,99.90
2023-01-02T08:29:19.357Z,99.90
2023-01-02T08:39:20.959Z,99.90
2023-01-02T08:49:22.572Z,99.90
2023-01-02T08:59:25.521Z,99.90
2023-01-02T09:09:27.241Z,99.90
2023-01-02T09:19:29.754Z,99.90
2023-01-02T09:29:31.367Z,99.90
2023-01-02T09:39:33.133Z,99.90
2023-01-02T09:49:46.329Z,99.90
2023-01-02T10:00:11.498Z,99.90
2023-01-02T10:10:27.715Z,99.70
2023-01-02T10:20:44.693Z,99.40
2023-01-02T10:30:55.633Z,99.00
2023-01-02T10:40:57.424Z,97.50
2023-01-02T10:51:04.652Z,95.20
2023-01-02T11:01:13.944Z,93.10
2023-01-02T11:11:17.933Z,91.90
2023-01-02T11:21:33.070Z,90.60
2023-01-02T11:31:35.306Z,89.60
2023-01-02T11:42:13.370Z,86.90
2023-01-02T11:52:18.865Z,84.90
2023-01-02T12:02:38.655Z,83.30
2023-01-02T12:13:10.146Z,80.90
2023-01-02T12:23:36.599Z,78.90
2023-01-02T12:34:07.677Z,76.40
2023-01-02T12:44:21.183Z,74.30
2023-01-02T12:54:31.977Z,72.60
2023-01-02T13:04:38.136Z,71.10
2023-01-02T13:14:52.605Z,70.30
2023-01-02T13:24:56.932Z,70.20
2023-01-02T13:35:02.637Z,71.00
2023-01-02T13:45:14.474Z,71.70
2023-01-02T13:55:21.029Z,72.30
2023-01-02T14:05:57.017Z,73.10
2023-01-02T14:16:27.856Z,73.80
2023-01-02T14:26:34.654Z,74.40
2023-01-02T14:36:44.099Z,75.10
2023-01-02T14:46:46.050Z,78.30
2023-01-02T14:56:52.277Z,81.10
2023-01-02T15:07:19.464Z,81.50
2023-01-02T15:17:23.875Z,83.00
2023-01-02T15:27:30.082Z,84.70
2023-01-02T15:37:31.772Z,85.70
2023-01-02T15:47:33.499Z,86.80
2023-01-02T15:57:46.626Z,87.90
2023-01-02T16:07:51.025Z,89.00
2023-01-02T16:17:54.941Z,90.10
2023-01-02T16:28:35.354Z,90.50
2023-01-02T16:38:29.279Z,90.90
2023-01-02T16:48:31.977Z,91.30
2023-01-02T16:58:33.602Z,91.70
2023-01-02T17:08:35.265Z,92.10
2023-01-02T17:18:36.972Z,92.50
2023-01-02T17:28:38.678Z,93.00
2023-01-02T17:38:40.328Z,93.60
2023-01-02T17:48:42.497Z,94.60
2023-01-02T17:58:44.273Z,95.00
2023-01-02T18:08:46.536Z,94.90
2023-01-02T18:18:50.367Z,95.20
2023-01-02T18:29:02.796Z,95.60
2023-01-02T18:39:22.793Z,95.70
2023-01-02T18:49:28.737Z,96.00
2023-01-02T18:59:32.934Z,96.70
2023-01-02T19:09:36.318Z,96.50
2023-01-02T19:19:40.775Z,96.80
2023-01-02T19:29:48.623Z,97.00
2023-01-02T19:39:53.208Z,97.10
2023-01-02T19:49:55.310Z,97.30
2023-01-02T19:59:58.938Z,97.10
2023-01-02T20:10:00.579Z,97.00
2023-01-02T20:20:03.011Z,97.10
2023-01-02T20:30:07.032Z,96.90
2023-01-02T20:40:09.478Z,97.00
2023-01-02T20:50:11.150Z,96.60
2023-01-02T21:00:13.555Z,96.60
2023-01-02T21:10:15.295Z,96.60
2023-01-02T21:20:17.093Z,96.40
2023-01-02T21:30:18.889Z,96.30
2023-01-02T21:40:20.628Z,96.40
2023-01-02T21:50:22.941Z,96.20
2023-01-02T22:00:26.729Z,96.20
2023-01-02T22:10:28.406Z,96.20
2023-01-02T22:20:30.056Z,96.10
2023-01-02T22:30:34.992Z,96.00
2023-01-02T22:40:37.037Z,95.90
2023-01-02T22:50:44.476Z,95.70
2023-01-02T23:00:49.297Z,95.50
2023-01-02T23:10:50.951Z,95.50
2023-01-02T23:20:52.602Z,95.40
2023-01-02T23:30:54.416Z,95.40
2023-01-02T23:40:56.019Z,95.40
2023-01-02T23:51:02.241Z,95.50
